Share

Gillette, WY

Gillette-Campbell County (KGCC) Elev 4364 ft | 44.34 °N, 105.54 °W | Change Station

Current weather conditions updated 18 minutes ago

Clear
Clear
40 °F
Feels Like 38 °F
N
4
Wind Variable Wind from NW
Sunrise 6:13 AM
Sunset 7:51 PM
Moon Waning Gibbous

Tomorrow is forecast to be Much Cooler than today.

Pressure 29.80 in
Visibility 10.0 miles
Clouds Clear
Windchill 38 °F
Dew Point 35 °F
Humidity 83%
Rainfall 0.00 in
Snow Depth Not available.
UV 0 out of 16
Pollen 10.30 out of 12
Air Quality Not available.
Flu Activity Sporadic
METAR KGCC 190353Z AUTO 31003KT 10SM CLR 04/02 A2983 RMK AO2 SLP089 T00440017

More Conditions Fewer Conditions

Pressure 29.80 in
Visibility 10.0 miles
Clouds Clear
Windchill 38 °F
Dew Point 35 °F
Humidity 83%
Rainfall 0.00 in
Snow Depth Not available.
UV 0 out of 16
Pollen 10.30 out of 12
Air Quality Not available.
Flu Activity Sporadic
METAR KGCC 190353Z AUTO 31003KT 10SM CLR 04/02 A2983 RMK AO2 SLP089 T00440017

More Conditions Fewer Conditions

10-Day Weather Forecast

Almanac

Astronomy

Apr. 18, 2014 Rise Set
Actual Time 6:13 AM MDT 7:51 PM MDT
Civil Twilight 5:42 AM MDT 8:22 PM MDT
Nautical Twilight 5:05 AM MDT 8:59 PM MDT
Astronomical Twilight 4:25 AM MDT 9:39 PM MDT
Moon 11:44 PM MDT (4/18) 8:32 AM MDT (4/18)
Length of Visible Light 14h 39m
Length of Day
13h 37m
Tomorrow will be 2m 55s longer.
Waning Gibbous, 83% of the Moon is Illuminated
Apr 19
Waning Gibbous
Apr 22
Last Quarter
Apr 29
New
May 6
First Quarter
May 14
Full

Today's Extremes

State Highs State Lows

Community

  • Sunset Silhouettes
    Sunset Silhouettes
  • FL sunset Perico Isle
    FL sunset Perico Isle
  • Cloudy spring view
    Cloudy spring view
  • Old barn
    Old barn
  • What's for Lunch?
    What's for Lunch?

WunderPhotos

Upload Photos

1,702,637 photos uploaded!

WunderBlogs® & News

Nearby

Snow Depth

Station Depth Elevation
Cole Canyon 23 in 5910 ft
Hansen Sawmill 31 in 8360 ft
Cloud Peak Reservoir 69 in 9860 ft
Big Goose 45 in 7990 ft
Powder River Pass 50 in 9480 ft

Coastal Water Temperatures

Place Temperature
No Stations Reporting

Earthquake Activity

City Distance Mag. Time & Date
No recent earthquake activity has been reported nearby.
Minimum magnitude displayed is 2.5.

Nearby Weather Stations

Station Location Temp. Windchill Dew Point Humidity Wind Precip. Elev Updated Type
RAWS ECHETA WY, Gillette, WY 51 °F - 39 °F 64% ENE  at  13 mph 0.00 in / hr 4396 ft 8:51 PM MDT MADIS
(North Gillette), Gillette, WY 46.1 °F 46 °F 39 °F 76% WNW  at  0.0 mph 0.00 in / hr 4610 ft 10:11 PM MDT Rapid Fire

Show More Stations Show Fewer Stations

What do you think?

We're not finished. Please let us know what you like, what you don't like, and what you are still missing.